CheckWX is a tool to help pilots better visualize weather data.  It is not intended as a substitute for an official pre-flight weather briefing.

18:15:07 UTC

KITR METAR
Kit Carson County Airport
Burlington, Colorado, USA
Current

22 mins ago

KITR 241753Z AUTO 34007KT 230V060 10SM CLR 22/03 A2994 RMK AO2 SLP107 T02220033 10228 20039 58009
Observed
Apr-24 @ 17:53 UTC
Wind
  • 340° at 7 KTS
Visibility
10 SM
Flight Rules
VFR
Cloud Levels
  • Clear skies
Temperature
22°C / 72°F
Dewpoint
C / 37°F
Humidity
29%
Altimeter
29.94" Hg
Pressure
1013.92 hPa
Previous

1 hour ago

KITR 241653Z AUTO VRB03KT 10SM CLR 20/03 A2996 RMK AO2 SLP113 T02000028
Observed
Apr-24 @ 16:53 UTC
Wind
  • Variable at 3 KTS
Visibility
10 SM
Flight Rules
VFR
Cloud Levels
  • Clear skies
Temperature
20°C / 68°F
Dewpoint
C / 37°F
Humidity
33%
Altimeter
29.96" Hg
Pressure
1014.52 hPa
Previous

2 hours ago

KITR 241553Z AUTO 00000KT 10SM CLR 19/04 A2996 RMK AO2 SLP118 T01890039
Observed
Apr-24 @ 15:53 UTC
Visibility
10 SM
Flight Rules
VFR
Cloud Levels
  • Clear skies
Temperature
19°C / 66°F
Dewpoint
C / 39°F
Humidity
37%
Altimeter
29.96" Hg
Pressure
1014.52 hPa